Pagrindinis puslapis
METAR-TAF:

METAR-TAF

Oro uostai :

Utopia Creek, Aliaska, Jungtinės Amerikos Valstijos

platuma: 66-59N, ilguma: 153-42W, Aukštis: 372 m

Dabartinis oras

Ataskaita buvo paskelbta 40 minutes, ne 08:55 UTC
Vėjas 1 kt iš Pietų/Pietvakarių
Temperatūra -26°C
Drėgmė 83%
Slėgis 1012 hPa
Matomumas: 16.1 km
Giedras dangus

METAR: PAIM 260855Z AUTO 21001KT 10SM CLR M26/M28 A2989 RMK AO2 SLP186 T12591282 412071292 57011

Laikas: 00:35 (09:35 UTC)


TAF: trūkstamas

Orai ataskaitas ir orų prognozės (METAR, TAF).

turimą stotys yra geltonos ir raudonos taškus žemėlapyje.

Perkelti pele per norėdami pamatyti stoties vardą.

Tada spustelėkite, norėdami matyti oro stebėjimo ir prognozės.

Norėdami pakeisti žemėlapį: spustelėkite ant žalios mygtukų su juodo kryžiaus žemyn,; žalią mygtuką su brūkšneliu, jei norite nutolinti; arba žalių rodyklių gretimoms žemėlapius.


METAR-TAF: